createdAt,value
2023-04-27T00:01:20.035Z,2.30
2023-04-27T00:03:46.771Z,2.22
2023-04-27T00:06:14.685Z,2.00
2023-04-27T00:08:42.025Z,2.75
2023-04-27T00:11:08.584Z,2.05
2023-04-27T00:13:35.146Z,2.28
2023-04-27T00:16:04.351Z,2.83
2023-04-27T00:18:32.387Z,2.67
2023-04-27T00:20:59.149Z,2.10
2023-04-27T00:23:26.378Z,1.65
2023-04-27T00:25:56.007Z,1.35
2023-04-27T00:28:22.472Z,1.65
2023-04-27T00:30:54.310Z,1.92
2023-04-27T00:33:21.405Z,1.27
2023-04-27T00:35:48.018Z,2.00
2023-04-27T00:38:14.827Z,1.88
2023-04-27T00:40:41.416Z,1.83
2023-04-27T00:43:07.913Z,1.67
2023-04-27T00:45:41.314Z,2.00
2023-04-27T00:48:08.143Z,1.67
2023-04-27T00:53:02.137Z,1.77
2023-04-27T00:55:28.597Z,1.70
2023-04-27T00:57:55.203Z,1.65
2023-04-27T01:00:22.294Z,1.33
2023-04-27T01:02:49.621Z,1.50
2023-04-27T01:05:16.774Z,1.35
2023-04-27T01:07:43.232Z,1.50
2023-04-27T01:10:10.215Z,1.13
2023-04-27T01:12:36.986Z,1.65
2023-04-27T01:15:03.776Z,1.02
2023-04-27T01:17:30.490Z,1.30
2023-04-27T01:19:57.791Z,1.50
2023-04-27T01:22:24.296Z,1.55
2023-04-27T01:24:52.428Z,1.80
2023-04-27T01:27:19.160Z,1.65
2023-04-27T01:29:46.023Z,1.52
2023-04-27T01:32:13.379Z,1.88
2023-04-27T01:34:39.979Z,2.13
2023-04-27T01:37:06.730Z,2.33
2023-04-27T01:39:33.432Z,2.28
2023-04-27T01:42:00.069Z,2.15
2023-04-27T01:44:26.754Z,2.08
2023-04-27T01:46:53.347Z,1.90
2023-04-27T01:49:20.030Z,1.60
2023-04-27T01:51:46.533Z,2.30
2023-04-27T01:54:13.290Z,1.50
2023-04-27T01:56:39.882Z,1.77
2023-04-27T01:59:07.460Z,1.27
2023-04-27T02:01:34.584Z,1.92
2023-04-27T02:04:01.489Z,2.35
2023-04-27T02:06:28.417Z,2.00
2023-04-27T02:08:54.888Z,1.90
2023-04-27T02:11:21.755Z,1.92
2023-04-27T02:13:50.780Z,1.88
2023-04-27T02:16:17.352Z,1.77
2023-04-27T02:18:44.644Z,2.35
2023-04-27T02:21:11.864Z,2.00
2023-04-27T02:23:38.596Z,2.05
2023-04-27T02:26:05.926Z,2.13
2023-04-27T02:28:33.973Z,1.60
2023-04-27T02:31:03.171Z,1.63
2023-04-27T02:33:29.836Z,1.58
2023-04-27T02:35:56.328Z,1.33
2023-04-27T02:38:25.573Z,1.38
2023-04-27T02:40:55.836Z,2.20
2023-04-27T02:43:23.433Z,2.17
2023-04-27T02:45:50.291Z,1.70
2023-04-27T02:48:16.856Z,2.00
2023-04-27T02:50:44.707Z,2.20
2023-04-27T02:53:11.994Z,1.85
2023-04-27T02:55:39.671Z,1.83
2023-04-27T02:58:06.277Z,1.70
2023-04-27T03:00:33.102Z,1.98
2023-04-27T03:02:59.947Z,1.55
2023-04-27T03:07:55.284Z,1.60
2023-04-27T03:10:21.772Z,2.13
2023-04-27T03:12:48.433Z,1.98
2023-04-27T03:15:15.035Z,1.88
2023-04-27T03:17:44.383Z,2.08
2023-04-27T03:20:12.328Z,1.65
2023-04-27T03:22:38.941Z,1.80
2023-04-27T03:25:05.977Z,1.88
2023-04-27T03:27:32.507Z,2.08
2023-04-27T03:29:59.072Z,1.83
2023-04-27T03:32:26.062Z,2.03
2023-04-27T03:34:53.372Z,2.08
2023-04-27T03:37:20.110Z,2.88
2023-04-27T03:39:46.560Z,2.50
2023-04-27T03:42:13.190Z,1.38
2023-04-27T03:44:39.720Z,2.30
2023-04-27T03:47:09.232Z,1.67
2023-04-27T03:49:36.544Z,2.47
2023-04-27T03:52:03.654Z,2.83
2023-04-27T03:54:34.968Z,1.83
2023-04-27T03:57:02.723Z,1.95
2023-04-27T03:59:30.347Z,2.15
2023-04-27T04:02:00.200Z,2.10
2023-04-27T04:04:27.933Z,1.98
2023-04-27T04:06:54.710Z,2.20
2023-04-27T04:09:27.129Z,2.00
2023-04-27T04:11:53.923Z,2.08
2023-04-27T04:14:20.512Z,2.35
2023-04-27T04:16:47.031Z,2.25
2023-04-27T04:19:13.955Z,2.40
2023-04-27T04:21:40.784Z,1.90
2023-04-27T04:24:07.580Z,2.50
2023-04-27T04:26:34.080Z,2.20
2023-04-27T04:29:01.776Z,1.92
2023-04-27T04:31:29.810Z,2.15
2023-04-27T04:34:03.239Z,2.47
2023-04-27T04:36:30.875Z,2.30
2023-04-27T04:38:58.646Z,2.60
2023-04-27T04:41:25.675Z,2.30
2023-04-27T04:46:19.897Z,2.78
2023-04-27T04:48:47.270Z,2.00
2023-04-27T04:51:15.173Z,2.38
2023-04-27T04:53:41.827Z,3.40
2023-04-27T04:56:13.125Z,2.80
2023-04-27T04:58:40.424Z,2.78
2023-04-27T05:01:14.374Z,3.08
2023-04-27T05:03:41.344Z,2.65
2023-04-27T05:06:08.157Z,2.85
2023-04-27T05:08:34.788Z,2.47
2023-04-27T05:11:01.340Z,2.78
2023-04-27T05:13:28.245Z,2.67
2023-04-27T05:18:21.445Z,2.20
2023-04-27T05:20:47.944Z,2.28
2023-04-27T05:23:14.447Z,2.60
2023-04-27T05:25:43.908Z,2.85
2023-04-27T05:28:11.200Z,3.13
2023-04-27T05:30:38.124Z,3.10
2023-04-27T05:35:32.345Z,2.40
2023-04-27T05:37:59.070Z,2.00
2023-04-27T05:40:25.764Z,2.80
2023-04-27T05:42:52.558Z,2.83
2023-04-27T05:45:20.724Z,2.92
2023-04-27T05:47:49.052Z,2.78
2023-04-27T05:50:15.883Z,2.10
2023-04-27T05:52:42.491Z,2.78
2023-04-27T05:55:12.088Z,2.67
2023-04-27T05:57:39.315Z,3.03
2023-04-27T06:00:11.016Z,2.75
2023-04-27T06:02:37.792Z,2.92
2023-04-27T06:05:05.089Z,2.60
2023-04-27T06:07:31.791Z,2.72
2023-04-27T06:12:27.293Z,2.70
2023-04-27T06:14:54.094Z,2.75
2023-04-27T06:17:21.870Z,3.22
2023-04-27T06:19:48.481Z,2.83
2023-04-27T06:22:15.239Z,2.78
2023-04-27T06:24:42.511Z,2.97
2023-04-27T06:27:09.204Z,3.20
2023-04-27T06:29:35.934Z,3.05
2023-04-27T06:32:05.985Z,3.15
2023-04-27T06:34:34.225Z,3.28
2023-04-27T06:37:01.246Z,3.10
2023-04-27T06:39:27.972Z,3.00
2023-04-27T06:41:54.751Z,2.95
2023-04-27T06:44:21.311Z,3.42
2023-04-27T06:46:49.489Z,3.22
2023-04-27T06:49:16.264Z,2.80
2023-04-27T06:51:43.336Z,2.90
2023-04-27T06:54:12.982Z,2.35
2023-04-27T06:56:39.588Z,2.58
2023-04-27T06:59:06.218Z,2.35
2023-04-27T07:01:32.967Z,2.60
2023-04-27T07:03:59.817Z,2.40
2023-04-27T07:06:26.876Z,2.60
2023-04-27T07:08:53.413Z,2.47
2023-04-27T07:13:47.375Z,2.25
2023-04-27T07:16:14.006Z,2.15
2023-04-27T07:18:43.266Z,1.67
2023-04-27T07:21:11.160Z,1.60
2023-04-27T07:23:41.740Z,1.73
2023-04-27T07:26:08.834Z,1.67
2023-04-27T07:28:36.032Z,1.50
2023-04-27T07:31:05.470Z,1.48
2023-04-27T07:33:33.452Z,1.40
2023-04-27T07:36:00.268Z,1.63
2023-04-27T07:38:29.041Z,1.17
2023-04-27T07:40:58.890Z,1.27
2023-04-27T07:43:25.884Z,2.08
2023-04-27T07:45:52.818Z,1.80
2023-04-27T07:48:19.526Z,1.27
2023-04-27T07:50:46.619Z,1.75
2023-04-27T07:53:13.339Z,1.50
2023-04-27T07:55:40.845Z,1.73
2023-04-27T07:58:07.452Z,1.60
2023-04-27T08:00:33.997Z,1.58
2023-04-27T08:03:03.424Z,1.60
2023-04-27T08:05:33.438Z,1.20
2023-04-27T08:08:01.929Z,1.20
2023-04-27T08:10:31.402Z,1.55
2023-04-27T08:13:02.098Z,1.45
2023-04-27T08:15:28.691Z,1.40
2023-04-27T08:17:55.290Z,1.38
2023-04-27T08:20:21.952Z,1.30
2023-04-27T08:22:51.221Z,1.38
2023-04-27T08:25:17.814Z,1.55
2023-04-27T08:27:44.690Z,1.38
2023-04-27T08:30:11.920Z,1.23
2023-04-27T08:32:39.120Z,1.10
2023-04-27T08:35:06.555Z,1.50
2023-04-27T08:37:33.192Z,1.50
2023-04-27T08:39:59.874Z,1.13
2023-04-27T08:42:26.670Z,1.15
2023-04-27T08:44:53.210Z,1.42
2023-04-27T08:47:28.136Z,1.42
2023-04-27T08:50:01.573Z,1.05
2023-04-27T08:52:28.711Z,1.20
2023-04-27T08:54:55.334Z,1.33
2023-04-27T08:57:22.123Z,1.40
2023-04-27T09:00:00.218Z,1.70
2023-04-27T09:02:30.411Z,1.13
2023-04-27T09:04:57.262Z,1.10
2023-04-27T09:07:24.135Z,1.17
2023-04-27T09:09:52.866Z,1.25
2023-04-27T09:12:21.581Z,1.02
2023-04-27T09:14:58.593Z,1.60
2023-04-27T09:17:31.468Z,1.17
2023-04-27T09:20:11.900Z,1.13
2023-04-27T09:22:58.036Z,1.75
2023-04-27T09:25:29.174Z,1.08
2023-04-27T09:27:58.281Z,1.55
2023-04-27T09:30:26.304Z,1.38
2023-04-27T09:32:58.789Z,1.60
2023-04-27T09:37:54.307Z,2.10
2023-04-27T09:40:29.762Z,1.67
2023-04-27T09:42:57.835Z,1.58
2023-04-27T09:45:25.669Z,1.73
2023-04-27T09:47:53.186Z,1.67
2023-04-27T09:50:21.808Z,1.90
2023-04-27T09:52:48.748Z,1.75
2023-04-27T09:55:28.490Z,2.28
2023-04-27T09:58:23.689Z,1.38
2023-04-27T10:01:11.135Z,1.70
2023-04-27T10:03:40.661Z,1.35
2023-04-27T10:06:43.472Z,1.45
2023-04-27T10:09:12.877Z,1.60
2023-04-27T10:11:41.351Z,1.42
2023-04-27T10:14:11.166Z,1.58
2023-04-27T10:16:52.520Z,2.05
2023-04-27T10:19:22.570Z,1.73
2023-04-27T10:22:08.264Z,1.85
2023-04-27T10:24:37.592Z,1.63
2023-04-27T10:27:06.948Z,1.52
2023-04-27T10:29:42.217Z,2.10
2023-04-27T10:32:26.012Z,2.53
2023-04-27T10:35:04.073Z,1.60
2023-04-27T10:37:44.296Z,2.20
2023-04-27T10:40:17.320Z,1.98
2023-04-27T10:42:51.216Z,1.85
2023-04-27T10:45:30.873Z,1.80
2023-04-27T10:48:00.670Z,1.88
2023-04-27T10:50:27.938Z,2.33
2023-04-27T10:52:56.315Z,1.70
2023-04-27T10:55:23.607Z,2.30
2023-04-27T10:57:52.904Z,1.83
2023-04-27T11:00:26.796Z,1.98
2023-04-27T11:02:54.513Z,2.35
2023-04-27T11:05:25.000Z,2.35
2023-04-27T11:07:52.003Z,1.95
2023-04-27T11:10:20.532Z,1.98
2023-04-27T11:12:47.134Z,1.83
2023-04-27T11:15:14.209Z,2.33
2023-04-27T11:17:41.614Z,1.92
2023-04-27T11:20:09.081Z,1.88
2023-04-27T11:22:45.565Z,2.35
2023-04-27T11:25:12.320Z,1.83
2023-04-27T11:27:43.165Z,1.83
2023-04-27T11:30:21.476Z,2.03
2023-04-27T11:32:48.500Z,2.58
2023-04-27T11:35:15.899Z,2.08
2023-04-27T11:37:42.517Z,2.95
2023-04-27T11:40:09.929Z,1.92
2023-04-27T11:42:36.476Z,2.22
2023-04-27T11:45:07.007Z,2.50
2023-04-27T11:47:36.045Z,2.58
2023-04-27T11:50:05.575Z,2.25
2023-04-27T11:52:33.649Z,2.30
2023-04-27T11:55:01.961Z,2.20
2023-04-27T11:57:30.510Z,2.47
2023-04-27T12:00:00.162Z,2.20
2023-04-27T12:02:29.571Z,2.20
2023-04-27T12:04:56.792Z,2.45
2023-04-27T12:07:23.373Z,2.30
2023-04-27T12:09:50.084Z,2.47
2023-04-27T12:12:18.457Z,2.30
2023-04-27T12:14:45.973Z,3.08
2023-04-27T12:17:14.092Z,2.42
2023-04-27T12:19:40.562Z,2.33
2023-04-27T12:22:07.269Z,2.70
2023-04-27T12:24:33.941Z,2.55
2023-04-27T12:27:01.140Z,2.88
2023-04-27T12:29:27.698Z,3.13
2023-04-27T12:31:54.580Z,3.33
2023-04-27T12:34:21.328Z,3.03
2023-04-27T12:36:48.013Z,3.33
2023-04-27T12:39:16.763Z,3.05
2023-04-27T12:41:44.667Z,2.95
2023-04-27T12:44:12.801Z,3.15
2023-04-27T12:46:40.838Z,2.85
2023-04-27T12:49:08.301Z,3.47
2023-04-27T12:51:36.096Z,2.90
2023-04-27T12:54:07.391Z,3.63
2023-04-27T12:56:34.278Z,3.42
2023-04-27T12:59:00.975Z,3.30
2023-04-27T13:01:28.285Z,3.13
2023-04-27T13:03:59.259Z,3.33
2023-04-27T13:06:26.918Z,3.20
2023-04-27T13:08:53.363Z,3.42
2023-04-27T13:11:20.515Z,3.47
2023-04-27T13:13:47.834Z,3.35
2023-04-27T13:16:14.501Z,3.92
2023-04-27T13:18:41.190Z,4.32
2023-04-27T13:21:08.411Z,3.13
2023-04-27T13:23:34.943Z,3.60
2023-04-27T13:26:01.498Z,3.50
2023-04-27T13:28:27.951Z,3.92
2023-04-27T13:30:56.348Z,3.20
2023-04-27T13:33:23.906Z,3.53
2023-04-27T13:35:51.694Z,3.45
2023-04-27T13:38:18.141Z,3.47
2023-04-27T13:40:44.905Z,3.53
2023-04-27T13:43:11.348Z,3.05
2023-04-27T13:45:39.621Z,3.50
2023-04-27T13:48:06.489Z,3.38
2023-04-27T13:50:33.245Z,3.28
2023-04-27T13:53:01.779Z,3.70
2023-04-27T13:55:28.289Z,3.47
2023-04-27T13:57:54.769Z,2.58
2023-04-27T14:00:21.541Z,2.00
2023-04-27T14:02:48.055Z,2.80
2023-04-27T14:05:14.704Z,2.58
2023-04-27T14:07:43.933Z,3.05
2023-04-27T14:10:10.756Z,2.70
2023-04-27T14:12:37.304Z,2.42
2023-04-27T14:15:04.102Z,2.60
2023-04-27T14:17:30.526Z,2.83
2023-04-27T14:19:59.523Z,2.22
2023-04-27T14:22:26.155Z,2.53
2023-04-27T14:24:52.614Z,2.95
2023-04-27T14:27:19.350Z,2.85
2023-04-27T14:29:45.782Z,3.22
2023-04-27T14:32:12.798Z,2.75
2023-04-27T14:34:39.724Z,2.00
2023-04-27T14:37:06.581Z,2.55
2023-04-27T14:39:33.101Z,2.55
2023-04-27T14:41:59.546Z,2.25
2023-04-27T14:44:26.233Z,2.22
2023-04-27T14:46:54.277Z,2.30
2023-04-27T14:49:21.021Z,2.50
2023-04-27T14:51:47.767Z,2.25
2023-04-27T14:54:15.641Z,2.15
2023-04-27T14:56:42.698Z,2.35
2023-04-27T14:59:09.242Z,2.10
2023-04-27T15:01:43.894Z,1.63
2023-04-27T15:04:11.441Z,1.88
2023-04-27T15:06:37.983Z,1.80
2023-04-27T15:09:05.281Z,1.58
2023-04-27T15:11:32.273Z,1.75
2023-04-27T15:13:58.834Z,1.63
2023-04-27T15:16:25.564Z,2.10
2023-04-27T15:18:52.279Z,1.90
2023-04-27T15:21:18.985Z,1.70
2023-04-27T15:23:45.458Z,1.60
2023-04-27T15:26:11.947Z,2.10
2023-04-27T15:28:38.587Z,1.45
2023-04-27T15:31:05.132Z,1.77
2023-04-27T15:33:31.628Z,1.67
2023-04-27T15:35:59.353Z,1.38
2023-04-27T15:38:26.678Z,1.42
2023-04-27T15:40:53.126Z,1.80
2023-04-27T15:43:19.839Z,1.17
2023-04-27T15:45:46.616Z,2.00
2023-04-27T15:48:13.720Z,1.70
2023-04-27T15:50:40.406Z,1.95
2023-04-27T15:53:07.140Z,1.50
2023-04-27T15:55:33.666Z,1.67
2023-04-27T15:58:00.216Z,1.88
2023-04-27T16:00:26.749Z,1.98
2023-04-27T16:02:53.659Z,1.50
2023-04-27T16:05:20.481Z,1.75
2023-04-27T16:07:47.272Z,1.92
2023-04-27T16:10:14.021Z,1.52
2023-04-27T16:12:40.933Z,1.67
2023-04-27T16:15:10.688Z,1.67
2023-04-27T16:17:38.071Z,1.80
2023-04-27T16:20:08.210Z,1.25
2023-04-27T16:22:35.191Z,1.52
2023-04-27T16:25:02.322Z,2.00
2023-04-27T16:27:28.806Z,1.67
2023-04-27T16:29:56.353Z,2.72
2023-04-27T16:32:23.126Z,1.70
2023-04-27T16:34:49.976Z,1.80
2023-04-27T16:37:19.208Z,1.83
2023-04-27T16:39:45.673Z,1.60
2023-04-27T16:42:16.321Z,2.05
2023-04-27T16:44:42.727Z,1.90
2023-04-27T16:47:09.126Z,1.95
2023-04-27T16:49:36.482Z,1.83
2023-04-27T16:52:03.216Z,1.77
2023-04-27T16:54:29.722Z,1.30
2023-04-27T16:56:56.426Z,1.52
2023-04-27T16:59:23.057Z,1.83
2023-04-27T17:01:50.085Z,1.83
2023-04-27T17:04:16.764Z,1.60
2023-04-27T17:06:45.526Z,1.52
2023-04-27T17:09:12.374Z,2.00
2023-04-27T17:11:38.929Z,1.83
2023-04-27T17:14:05.448Z,2.28
2023-04-27T17:16:33.331Z,1.60
2023-04-27T17:18:59.746Z,1.83
2023-04-27T17:21:27.476Z,2.08
2023-04-27T17:23:55.667Z,1.80
2023-04-27T17:26:24.016Z,2.15
2023-04-27T17:28:51.126Z,2.38
2023-04-27T17:31:17.792Z,2.53
2023-04-27T17:33:45.133Z,2.38
2023-04-27T17:36:11.744Z,1.83
2023-04-27T17:38:38.264Z,2.05
2023-04-27T17:41:04.785Z,2.50
2023-04-27T17:43:33.290Z,2.20
2023-04-27T17:45:59.731Z,2.40
2023-04-27T17:48:26.388Z,2.60
2023-04-27T17:50:53.430Z,2.65
2023-04-27T17:53:19.992Z,2.60
2023-04-27T17:55:47.758Z,2.35
2023-04-27T17:58:15.537Z,2.65
2023-04-27T18:00:43.074Z,2.55
2023-04-27T18:03:10.076Z,2.60
2023-04-27T18:05:36.818Z,2.85
2023-04-27T18:08:03.360Z,2.45
2023-04-27T18:10:29.828Z,2.47
2023-04-27T18:12:56.257Z,2.42
2023-04-27T18:15:22.861Z,2.50
2023-04-27T18:17:49.678Z,2.30
2023-04-27T18:20:16.360Z,2.80
2023-04-27T18:22:42.813Z,2.45
2023-04-27T18:25:10.037Z,2.78
2023-04-27T18:27:39.541Z,2.72
2023-04-27T18:30:09.329Z,2.88
2023-04-27T18:32:36.057Z,2.72
2023-04-27T18:35:03.035Z,2.65
2023-04-27T18:37:29.680Z,2.75
2023-04-27T18:39:56.188Z,2.15
2023-04-27T18:42:23.772Z,2.45
2023-04-27T18:44:54.798Z,2.80
2023-04-27T18:47:22.434Z,3.30
2023-04-27T18:49:49.259Z,2.80
2023-04-27T18:52:15.888Z,2.60
2023-04-27T18:54:42.507Z,2.72
2023-04-27T18:57:09.009Z,3.50
2023-04-27T18:59:41.590Z,2.45
2023-04-27T19:04:35.774Z,2.53
2023-04-27T19:07:02.725Z,3.88
2023-04-27T19:09:29.357Z,3.20
2023-04-27T19:12:02.866Z,2.50
2023-04-27T19:14:31.241Z,2.53
2023-04-27T19:16:57.873Z,2.97
2023-04-27T19:19:24.993Z,3.53
2023-04-27T19:21:51.478Z,4.15
2023-04-27T19:24:18.099Z,3.42
2023-04-27T19:26:46.691Z,3.05
2023-04-27T19:29:13.776Z,3.78
2023-04-27T19:31:40.925Z,4.15
2023-04-27T19:34:07.510Z,3.58
2023-04-27T19:36:34.001Z,2.88
2023-04-27T19:39:00.547Z,2.97
2023-04-27T19:41:27.021Z,3.13
2023-04-27T19:43:53.550Z,2.72
2023-04-27T19:46:20.203Z,2.42
2023-04-27T19:48:46.782Z,2.50
2023-04-27T19:51:13.600Z,2.53
2023-04-27T19:53:40.087Z,3.20
2023-04-27T19:56:07.519Z,2.42
2023-04-27T19:58:35.718Z,2.70
2023-04-27T20:01:02.332Z,2.55
2023-04-27T20:03:28.972Z,2.20
2023-04-27T20:05:55.900Z,2.33
2023-04-27T20:08:22.981Z,2.65
2023-04-27T20:10:49.625Z,2.25
2023-04-27T20:13:16.278Z,2.97
2023-04-27T20:15:43.298Z,3.03
2023-04-27T20:18:09.913Z,2.70
2023-04-27T20:20:37.586Z,3.20
2023-04-27T20:23:04.046Z,2.97
2023-04-27T20:25:30.682Z,3.20
2023-04-27T20:27:57.218Z,2.90
2023-04-27T20:30:23.777Z,3.05
2023-04-27T20:32:50.372Z,3.20
2023-04-27T20:35:16.921Z,3.20
2023-04-27T20:37:43.665Z,2.80
2023-04-27T20:40:17.513Z,2.80
2023-04-27T20:42:45.692Z,2.90
2023-04-27T20:45:12.370Z,2.75
2023-04-27T20:47:38.880Z,2.80
2023-04-27T20:50:06.322Z,2.88
2023-04-27T20:52:34.506Z,2.55
2023-04-27T20:55:01.517Z,3.30
2023-04-27T20:57:27.996Z,3.25
2023-04-27T20:59:54.900Z,3.15
2023-04-27T21:02:21.660Z,3.05
2023-04-27T21:04:48.590Z,3.15
2023-04-27T21:07:15.192Z,3.22
2023-04-27T21:09:41.745Z,3.20
2023-04-27T21:12:09.799Z,3.00
2023-04-27T21:14:36.372Z,2.17
2023-04-27T21:17:03.063Z,2.88
2023-04-27T21:19:29.553Z,4.13
2023-04-27T21:21:56.027Z,2.97
2023-04-27T21:24:22.697Z,3.33
2023-04-27T21:26:49.226Z,2.83
2023-04-27T21:29:18.988Z,3.53
2023-04-27T21:31:45.443Z,3.28
2023-04-27T21:34:11.974Z,3.08
2023-04-27T21:36:38.535Z,2.72
2023-04-27T21:39:05.894Z,2.70
2023-04-27T21:41:34.925Z,2.50
2023-04-27T21:44:01.349Z,2.55
2023-04-27T21:48:54.546Z,2.60
2023-04-27T21:51:20.951Z,3.17
2023-04-27T21:56:14.035Z,2.83
2023-04-27T21:58:40.726Z,2.97
2023-04-27T22:01:07.154Z,2.70
2023-04-27T22:03:33.817Z,3.90
2023-04-27T22:06:00.415Z,3.05
2023-04-27T22:10:53.545Z,2.85
2023-04-27T22:13:38.450Z,3.00
2023-04-27T22:16:05.420Z,2.85
2023-04-27T22:18:34.644Z,3.30
2023-04-27T22:21:01.330Z,3.22
2023-04-27T22:23:29.707Z,3.90
2023-04-27T22:25:56.174Z,3.22
2023-04-27T22:28:23.184Z,3.38
2023-04-27T22:30:49.702Z,3.33
2023-04-27T22:33:16.731Z,2.78
2023-04-27T22:35:44.129Z,2.92
2023-04-27T22:38:10.849Z,3.40
2023-04-27T22:40:37.505Z,3.30
2023-04-27T22:43:04.022Z,3.15
2023-04-27T22:45:30.591Z,3.50
2023-04-27T22:47:57.627Z,3.25
2023-04-27T22:50:24.155Z,3.08
2023-04-27T22:52:53.159Z,3.95
2023-04-27T22:55:19.614Z,3.17
2023-04-27T22:57:46.186Z,3.55
2023-04-27T23:00:14.173Z,3.17
2023-04-27T23:02:41.461Z,2.67
2023-04-27T23:05:09.398Z,2.92
2023-04-27T23:07:36.293Z,3.22
2023-04-27T23:10:03.621Z,3.08
2023-04-27T23:12:31.792Z,3.85
2023-04-27T23:14:58.935Z,2.85
2023-04-27T23:17:31.978Z,3.22
2023-04-27T23:20:00.065Z,3.40
2023-04-27T23:22:27.645Z,3.22
2023-04-27T23:24:54.447Z,2.67
2023-04-27T23:27:21.883Z,3.42
2023-04-27T23:29:49.782Z,3.15
2023-04-27T23:32:16.996Z,2.83
2023-04-27T23:34:43.474Z,3.33
2023-04-27T23:37:10.264Z,3.55
2023-04-27T23:39:37.032Z,3.08
2023-04-27T23:42:03.675Z,3.38
2023-04-27T23:44:30.465Z,2.85
2023-04-27T23:46:57.083Z,3.47
2023-04-27T23:49:23.647Z,3.28
2023-04-27T23:51:52.613Z,3.05
2023-04-27T23:54:19.120Z,3.20
2023-04-27T23:56:45.628Z,3.20
2023-04-27T23:59:12.210Z,3.05
